Time;durP1;ratioP1;P1;durP2;ratioP2;P2;SDS_P1;SDS_P2;PMS_P1;PMS_P2;Temp;Humidity;BMP_temperature;BMP_pressure;BME280_temperature;BME280_humidity;BME280_pressure;Samples;Min_cycle;Max_cycle;Signal;HPM_P1;HPM_P2
2023/12/17 00:02:26;;;;;;;1.98;1.73;;;;;;;;;;5060868;28;20204;-61
2023/12/17 00:04:53;;;;;;;2.20;1.60;;;;;;;;;;5058511;28;20721;-61
2023/12/17 00:07:22;;;;;;;1.60;1.50;;;;;;;;;;5062747;28;20942;-61
2023/12/17 00:09:50;;;;;;;1.90;1.67;;;;;;;;;;5061971;28;20283;-61
2023/12/17 00:12:18;;;;;;;1.65;1.55;;;;;;;;;;5064621;28;20216;-61
2023/12/17 00:14:45;;;;;;;1.75;1.65;;;;;;;;;;5066177;28;20208;-62
2023/12/17 00:17:12;;;;;;;1.63;1.50;;;;;;;;;;5062281;28;20240;-62
2023/12/17 00:19:40;;;;;;;1.65;1.50;;;;;;;;;;5063369;28;20242;-61
2023/12/17 00:22:07;;;;;;;2.80;1.80;;;;;;;;;;5066397;28;20220;-61
2023/12/17 00:24:34;;;;;;;1.95;1.70;;;;;;;;;;5065289;28;20215;-61
2023/12/17 00:27:03;;;;;;;1.88;1.70;;;;;;;;;;5064226;28;20212;-61
2023/12/17 00:29:31;;;;;;;2.00;1.90;;;;;;;;;;5063506;28;20212;-61
2023/12/17 00:31:58;;;;;;;1.95;1.60;;;;;;;;;;5070482;28;20212;-61
2023/12/17 00:34:25;;;;;;;1.98;1.77;;;;;;;;;;5064747;28;20889;-61
2023/12/17 00:36:52;;;;;;;1.90;1.50;;;;;;;;;;5064588;28;20825;-61
2023/12/17 00:39:20;;;;;;;2.33;1.90;;;;;;;;;;5071729;28;20529;-61
2023/12/17 00:41:47;;;;;;;1.55;1.45;;;;;;;;;;5064409;28;20507;-61
2023/12/17 00:44:16;;;;;;;1.73;1.63;;;;;;;;;;5066478;28;20231;-61
2023/12/17 00:46:43;;;;;;;1.77;1.45;;;;;;;;;;5063698;28;20204;-61
2023/12/17 00:49:11;;;;;;;1.60;1.42;;;;;;;;;;5066658;28;20597;-61
2023/12/17 00:51:38;;;;;;;1.67;1.58;;;;;;;;;;5066835;28;20216;-61
2023/12/17 00:54:06;;;;;;;2.03;1.67;;;;;;;;;;5064443;28;20614;-61
2023/12/17 00:56:33;;;;;;;1.42;1.33;;;;;;;;;;5063973;28;21019;-61
2023/12/17 00:59:00;;;;;;;1.95;1.67;;;;;;;;;;5065884;28;20240;-61
2023/12/17 01:01:29;;;;;;;1.88;1.70;;;;;;;;;;5064308;28;20204;-61
2023/12/17 01:03:56;;;;;;;1.90;1.52;;;;;;;;;;5062791;28;20215;-61
2023/12/17 01:06:24;;;;;;;1.50;1.40;;;;;;;;;;5063218;28;20204;-61
2023/12/17 01:08:51;;;;;;;1.65;1.55;;;;;;;;;;5064553;28;20201;-61
2023/12/17 01:11:18;;;;;;;1.50;1.40;;;;;;;;;;5063922;28;20200;-61
2023/12/17 01:13:46;;;;;;;1.50;1.40;;;;;;;;;;5067736;28;20590;-62
2023/12/17 01:16:13;;;;;;;1.45;1.35;;;;;;;;;;5063675;28;20224;-61
2023/12/17 01:18:42;;;;;;;1.60;1.50;;;;;;;;;;5062815;28;20236;-61
2023/12/17 01:21:09;;;;;;;1.67;1.48;;;;;;;;;;5065400;28;20213;-61
2023/12/17 01:23:37;;;;;;;1.60;1.50;;;;;;;;;;5065892;28;20590;-62
2023/12/17 01:26:04;;;;;;;1.60;1.50;;;;;;;;;;5066251;28;20371;-61
2023/12/17 01:28:32;;;;;;;1.80;1.60;;;;;;;;;;5063599;28;20205;-62
2023/12/17 01:30:59;;;;;;;2.35;1.85;;;;;;;;;;5066195;28;20216;-62
2023/12/17 01:33:27;;;;;;;1.50;1.40;;;;;;;;;;5064924;28;20215;-61
2023/12/17 01:35:55;;;;;;;2.70;1.73;;;;;;;;;;5062847;28;20214;-61
2023/12/17 01:38:22;;;;;;;1.50;1.40;;;;;;;;;;5064098;28;20269;-62
2023/12/17 01:40:50;;;;;;;1.50;1.40;;;;;;;;;;5065441;28;20216;-62
2023/12/17 01:43:17;;;;;;;1.55;1.45;;;;;;;;;;5062396;28;20215;-61
2023/12/17 01:45:44;;;;;;;1.70;1.58;;;;;;;;;;5059786;28;20224;-61
2023/12/17 01:48:12;;;;;;;1.60;1.50;;;;;;;;;;5065170;28;20510;-62
2023/12/17 01:50:40;;;;;;;1.45;1.35;;;;;;;;;;5064168;28;20204;-61
2023/12/17 01:53:08;;;;;;;1.95;1.48;;;;;;;;;;5065324;28;20265;-61
2023/12/17 01:55:36;;;;;;;1.58;1.38;;;;;;;;;;5063030;28;20213;-61
2023/12/17 01:58:03;;;;;;;1.80;1.50;;;;;;;;;;5063237;28;20259;-62
2023/12/17 02:00:31;;;;;;;1.45;1.35;;;;;;;;;;5064133;28;20263;-62
2023/12/17 02:02:59;;;;;;;1.50;1.40;;;;;;;;;;5061319;28;20521;-62
2023/12/17 02:05:26;;;;;;;1.88;1.40;;;;;;;;;;5064626;28;20212;-61
2023/12/17 02:07:53;;;;;;;1.98;1.40;;;;;;;;;;5061197;28;20208;-61
2023/12/17 02:10:22;;;;;;;1.40;1.30;;;;;;;;;;5063270;28;20558;-61
2023/12/17 02:12:49;;;;;;;2.53;1.50;;;;;;;;;;5064515;28;20239;-61
2023/12/17 02:15:17;;;;;;;1.40;1.30;;;;;;;;;;5062237;28;20208;-62
2023/12/17 02:17:44;;;;;;;1.67;1.38;;;;;;;;;;5061020;28;20232;-61
2023/12/17 02:20:12;;;;;;;1.20;1.20;;;;;;;;;;5062065;28;20233;-61
2023/12/17 02:22:40;;;;;;;1.70;1.35;;;;;;;;;;5064364;28;20220;-61
2023/12/17 02:25:09;;;;;;;1.30;1.20;;;;;;;;;;5059994;28;20216;-62
2023/12/17 02:27:37;;;;;;;1.48;1.20;;;;;;;;;;5061747;28;20220;-61
2023/12/17 02:30:04;;;;;;;2.00;1.50;;;;;;;;;;5062872;28;20200;-61
2023/12/17 02:32:32;;;;;;;1.20;1.10;;;;;;;;;;5065604;28;20209;-61
2023/12/17 02:34:59;;;;;;;1.38;1.27;;;;;;;;;;5060065;28;20213;-62
2023/12/17 02:37:26;;;;;;;1.40;1.30;;;;;;;;;;5063210;28;20223;-62
2023/12/17 02:39:53;;;;;;;1.48;1.27;;;;;;;;;;5062102;28;20212;-62
2023/12/17 02:42:22;;;;;;;1.40;1.27;;;;;;;;;;5062817;28;20219;-61
2023/12/17 02:44:50;;;;;;;1.95;1.45;;;;;;;;;;5059435;28;20463;-61
2023/12/17 02:47:17;;;;;;;1.40;1.30;;;;;;;;;;5057970;28;20204;-62
2023/12/17 02:49:44;;;;;;;1.40;1.30;;;;;;;;;;5053540;28;20209;-61
2023/12/17 02:52:12;;;;;;;1.40;1.30;;;;;;;;;;5055990;28;20211;-61
2023/12/17 02:54:39;;;;;;;1.65;1.55;;;;;;;;;;5059125;28;20219;-62
2023/12/17 02:57:06;;;;;;;1.50;1.40;;;;;;;;;;5067233;28;20229;-61
2023/12/17 02:59:35;;;;;;;1.30;1.20;;;;;;;;;;5061221;28;20745;-61
2023/12/17 03:02:02;;;;;;;1.23;1.13;;;;;;;;;;5061867;28;20254;-62
2023/12/17 03:04:30;;;;;;;1.40;1.25;;;;;;;;;;5060806;28;20212;-61
2023/12/17 03:06:57;;;;;;;1.52;1.40;;;;;;;;;;5065288;28;20218;-62
2023/12/17 03:09:25;;;;;;;1.40;1.30;;;;;;;;;;5062692;28;20208;-61
2023/12/17 03:11:52;;;;;;;1.30;1.20;;;;;;;;;;5063469;28;20220;-62
2023/12/17 03:14:20;;;;;;;1.73;1.45;;;;;;;;;;5060711;28;20213;-61
2023/12/17 03:16:48;;;;;;;1.52;1.42;;;;;;;;;;5063737;28;20294;-61
2023/12/17 03:19:16;;;;;;;1.50;1.40;;;;;;;;;;5062496;28;20243;-61
2023/12/17 03:21:43;;;;;;;2.03;1.50;;;;;;;;;;5061791;28;20212;-61
2023/12/17 03:24:11;;;;;;;1.85;1.15;;;;;;;;;;5061302;28;20518;-61
2023/12/17 03:26:38;;;;;;;2.03;1.40;;;;;;;;;;5065531;28;20212;-61
2023/12/17 03:29:05;;;;;;;1.40;1.30;;;;;;;;;;5066354;28;20208;-62
2023/12/17 03:31:32;;;;;;;1.50;1.40;;;;;;;;;;5062498;28;20201;-61
2023/12/17 03:34:02;;;;;;;1.35;1.25;;;;;;;;;;5063942;28;20219;-62
2023/12/17 03:36:29;;;;;;;1.67;1.45;;;;;;;;;;5063788;28;20211;-62
2023/12/17 03:38:57;;;;;;;1.52;1.30;;;;;;;;;;5066554;28;20237;-61
2023/12/17 03:41:25;;;;;;;1.83;1.30;;;;;;;;;;5059208;28;20228;-62
2023/12/17 03:43:53;;;;;;;1.40;1.30;;;;;;;;;;5060981;28;20204;-62
2023/12/17 03:46:20;;;;;;;1.08;1.08;;;;;;;;;;5060895;28;20564;-61
2023/12/17 03:48:47;;;;;;;1.25;1.15;;;;;;;;;;5065790;28;20285;-61
2023/12/17 03:51:16;;;;;;;1.35;1.20;;;;;;;;;;5066801;28;20212;-62
2023/12/17 03:53:44;;;;;;;1.30;1.20;;;;;;;;;;5068684;28;20598;-61
2023/12/17 03:56:11;;;;;;;1.40;1.30;;;;;;;;;;5065709;28;20235;-61
2023/12/17 03:58:39;;;;;;;1.70;1.10;;;;;;;;;;5069887;28;20542;-61
2023/12/17 04:01:07;;;;;;;1.23;1.13;;;;;;;;;;5069109;28;20212;-61
2023/12/17 04:03:34;;;;;;;1.30;1.20;;;;;;;;;;5065711;28;20213;-62
2023/12/17 04:06:03;;;;;;;2.10;1.20;;;;;;;;;;5063982;28;20212;-62
2023/12/17 04:08:31;;;;;;;1.52;1.17;;;;;;;;;;5065943;28;20295;-61
2023/12/17 04:10:59;;;;;;;1.23;1.13;;;;;;;;;;5065594;28;20559;-61
2023/12/17 04:13:26;;;;;;;1.85;1.45;;;;;;;;;;5064665;28;20245;-61
2023/12/17 04:15:53;;;;;;;1.25;1.17;;;;;;;;;;5063979;28;20239;-61
2023/12/17 04:18:20;;;;;;;1.25;1.15;;;;;;;;;;5067453;28;20267;-61
2023/12/17 04:20:48;;;;;;;2.00;1.30;;;;;;;;;;5063328;28;20286;-61
2023/12/17 04:23:15;;;;;;;1.50;1.40;;;;;;;;;;5065559;28;20216;-61
2023/12/17 04:25:44;;;;;;;1.58;1.38;;;;;;;;;;5057822;28;20455;-61
2023/12/17 04:28:11;;;;;;;1.70;1.20;;;;;;;;;;5066685;28;20219;-61
2023/12/17 04:30:39;;;;;;;1.85;1.30;;;;;;;;;;5065182;28;20224;-62
2023/12/17 04:33:06;;;;;;;1.40;1.30;;;;;;;;;;5065724;28;20220;-61
2023/12/17 04:35:34;;;;;;;3.20;1.40;;;;;;;;;;5061968;28;20205;-61
2023/12/17 04:38:01;;;;;;;1.40;1.30;;;;;;;;;;5064264;28;20213;-61
2023/12/17 04:40:28;;;;;;;1.30;1.20;;;;;;;;;;5072149;28;20515;-61
2023/12/17 04:42:57;;;;;;;1.70;1.52;;;;;;;;;;5065541;28;20230;-61
2023/12/17 04:45:24;;;;;;;1.33;1.23;;;;;;;;;;5061415;28;20293;-61
2023/12/17 04:47:52;;;;;;;1.50;1.35;;;;;;;;;;5065186;28;20208;-62
2023/12/17 04:50:19;;;;;;;1.63;1.45;;;;;;;;;;5067573;28;20209;-62
2023/12/17 04:52:47;;;;;;;2.13;1.40;;;;;;;;;;5064519;28;20209;-61
2023/12/17 04:55:14;;;;;;;1.58;1.40;;;;;;;;;;5063608;28;20201;-62
2023/12/17 04:57:41;;;;;;;1.35;1.17;;;;;;;;;;5063883;28;20232;-61
2023/12/17 05:00:11;;;;;;;2.00;1.40;;;;;;;;;;5066226;28;20243;-61
2023/12/17 05:02:39;;;;;;;2.25;1.30;;;;;;;;;;5065214;28;21017;-62
2023/12/17 05:05:06;;;;;;;2.50;1.42;;;;;;;;;;5064498;28;20331;-62
2023/12/17 05:07:33;;;;;;;2.08;1.40;;;;;;;;;;5063619;28;20307;-61
2023/12/17 05:10:00;;;;;;;1.33;1.23;;;;;;;;;;5064229;28;20327;-61
2023/12/17 05:12:28;;;;;;;1.40;1.30;;;;;;;;;;5068459;28;20600;-61
2023/12/17 05:14:55;;;;;;;1.60;1.50;;;;;;;;;;5062345;28;20211;-62
2023/12/17 05:17:24;;;;;;;3.05;1.70;;;;;;;;;;5065367;28;20204;-62
2023/12/17 05:19:51;;;;;;;1.60;1.40;;;;;;;;;;5064390;28;20235;-62
2023/12/17 05:22:19;;;;;;;1.33;1.23;;;;;;;;;;5068497;28;20213;-61
2023/12/17 05:24:48;;;;;;;1.77;1.50;;;;;;;;;;5065221;28;20225;-62
2023/12/17 05:27:15;;;;;;;1.88;1.52;;;;;;;;;;5065271;28;20339;-61
2023/12/17 05:29:43;;;;;;;1.60;1.50;;;;;;;;;;5065701;28;20590;-62
2023/12/17 05:32:10;;;;;;;1.75;1.65;;;;;;;;;;5064445;28;20215;-62
2023/12/17 05:34:39;;;;;;;1.42;1.33;;;;;;;;;;5062268;28;20212;-61
2023/12/17 05:37:07;;;;;;;1.50;1.40;;;;;;;;;;5069208;28;20207;-61
2023/12/17 05:39:34;;;;;;;1.65;1.55;;;;;;;;;;5063989;28;20320;-62
2023/12/17 05:42:01;;;;;;;1.55;1.45;;;;;;;;;;5066263;28;20235;-61
2023/12/17 05:44:29;;;;;;;2.05;1.45;;;;;;;;;;5063393;28;20235;-61
2023/12/17 05:46:56;;;;;;;1.70;1.60;;;;;;;;;;5066176;28;20231;-62
2023/12/17 05:49:23;;;;;;;1.90;1.40;;;;;;;;;;5065391;28;20216;-62
2023/12/17 05:51:53;;;;;;;1.50;1.40;;;;;;;;;;5064809;28;20212;-61
2023/12/17 05:54:20;;;;;;;1.80;1.50;;;;;;;;;;5062297;28;20208;-61
2023/12/17 05:56:48;;;;;;;1.60;1.50;;;;;;;;;;5064531;28;20211;-61
2023/12/17 05:59:15;;;;;;;2.10;1.90;;;;;;;;;;5063857;28;20236;-62
2023/12/17 06:01:42;;;;;;;2.45;1.75;;;;;;;;;;5066453;28;20212;-61
2023/12/17 06:04:10;;;;;;;1.73;1.50;;;;;;;;;;5062754;28;20212;-61
2023/12/17 06:06:37;;;;;;;1.90;1.80;;;;;;;;;;5062817;28;20218;-61
2023/12/17 06:09:06;;;;;;;1.60;1.50;;;;;;;;;;5062547;28;20219;-62
2023/12/17 06:11:33;;;;;;;1.65;1.55;;;;;;;;;;5063517;28;20208;-62
2023/12/17 06:14:01;;;;;;;2.22;1.73;;;;;;;;;;5061607;28;20221;-62
2023/12/17 06:16:28;;;;;;;2.60;1.58;;;;;;;;;;5062942;28;20208;-62
2023/12/17 06:18:55;;;;;;;1.77;1.67;;;;;;;;;;5058911;28;20943;-61
2023/12/17 06:21:23;;;;;;;2.20;1.75;;;;;;;;;;5066094;28;20478;-61
2023/12/17 06:23:51;;;;;;;1.92;1.80;;;;;;;;;;5063052;28;20301;-61
2023/12/17 06:26:20;;;;;;;2.97;2.03;;;;;;;;;;5061317;28;20314;-62
2023/12/17 06:28:48;;;;;;;2.03;1.90;;;;;;;;;;5063053;28;20217;-62
2023/12/17 06:31:15;;;;;;;1.70;1.60;;;;;;;;;;5061139;28;20597;-61
2023/12/17 06:33:42;;;;;;;1.85;1.75;;;;;;;;;;5064019;28;20585;-61
2023/12/17 06:36:10;;;;;;;3.25;1.75;;;;;;;;;;5061954;28;20219;-61
2023/12/17 06:38:37;;;;;;;2.03;1.83;;;;;;;;;;5061277;28;20700;-62
2023/12/17 06:41:05;;;;;;;2.10;1.90;;;;;;;;;;5063607;28;20216;-62
2023/12/17 06:43:36;;;;;;;1.85;1.70;;;;;;;;;;5061913;28;20213;-61
2023/12/17 06:46:03;;;;;;;1.83;1.67;;;;;;;;;;5060471;28;20304;-61
2023/12/17 06:48:30;;;;;;;2.22;2.03;;;;;;;;;;5063497;28;20208;-61
2023/12/17 06:50:58;;;;;;;2.17;1.90;;;;;;;;;;5063791;28;22156;-61
2023/12/17 06:53:25;;;;;;;1.92;1.83;;;;;;;;;;5064615;28;20474;-61
2023/12/17 06:55:53;;;;;;;2.40;2.20;;;;;;;;;;5061925;28;20201;-62
2023/12/17 06:58:20;;;;;;;1.88;1.65;;;;;;;;;;5062715;28;20700;-61
2023/12/17 07:00:49;;;;;;;2.25;2.05;;;;;;;;;;5061850;28;20637;-61
2023/12/17 07:03:18;;;;;;;2.08;1.90;;;;;;;;;;5062405;28;20220;-61
2023/12/17 07:05:45;;;;;;;2.55;2.03;;;;;;;;;;5060835;28;20228;-61
2023/12/17 07:08:13;;;;;;;3.28;2.00;;;;;;;;;;5064501;28;20580;-61
2023/12/17 07:10:40;;;;;;;1.95;1.80;;;;;;;;;;5063945;28;20204;-61
2023/12/17 07:13:08;;;;;;;2.20;1.90;;;;;;;;;;5063642;28;20316;-61
2023/12/17 07:15:35;;;;;;;1.98;1.77;;;;;;;;;;5059509;28;20204;-61
2023/12/17 07:18:04;;;;;;;3.10;1.95;;;;;;;;;;5062972;28;20299;-62
2023/12/17 07:20:32;;;;;;;2.53;1.75;;;;;;;;;;5062531;28;20252;-62
2023/12/17 07:22:59;;;;;;;2.10;1.77;;;;;;;;;;5066992;28;20621;-62
2023/12/17 07:25:27;;;;;;;2.17;1.70;;;;;;;;;;5065450;28;20208;-61
2023/12/17 07:27:54;;;;;;;1.80;1.70;;;;;;;;;;5068628;28;20303;-61
2023/12/17 07:30:21;;;;;;;2.20;2.00;;;;;;;;;;5067590;28;20326;-62
2023/12/17 07:32:49;;;;;;;2.22;2.00;;;;;;;;;;5066408;28;20208;-62
2023/12/17 07:35:18;;;;;;;2.22;2.03;;;;;;;;;;5065355;28;20270;-62
2023/12/17 07:37:45;;;;;;;2.03;1.92;;;;;;;;;;5066610;28;20532;-62
2023/12/17 07:40:13;;;;;;;2.05;1.85;;;;;;;;;;5065249;28;20641;-61
2023/12/17 07:42:40;;;;;;;2.28;2.08;;;;;;;;;;5066788;28;20215;-61
2023/12/17 07:45:08;;;;;;;2.35;2.15;;;;;;;;;;5064752;28;20606;-62
2023/12/17 07:47:35;;;;;;;2.30;2.10;;;;;;;;;;5064919;28;20228;-61
2023/12/17 07:50:03;;;;;;;2.20;2.10;;;;;;;;;;5066738;28;20215;-61
2023/12/17 07:52:31;;;;;;;3.25;1.95;;;;;;;;;;5067558;28;20216;-61
2023/12/17 07:54:59;;;;;;;2.20;2.00;;;;;;;;;;5064044;28;20717;-61
2023/12/17 07:57:26;;;;;;;2.00;1.90;;;;;;;;;;5065333;28;20236;-61
2023/12/17 07:59:53;;;;;;;2.97;2.40;;;;;;;;;;5064748;28;20243;-61
2023/12/17 08:02:21;;;;;;;2.17;1.98;;;;;;;;;;5067259;28;20217;-61
2023/12/17 08:04:49;;;;;;;2.38;2.17;;;;;;;;;;5063317;28;20219;-61
2023/12/17 08:07:17;;;;;;;2.47;2.05;;;;;;;;;;5064954;28;20213;-61
2023/12/17 08:09:45;;;;;;;2.17;1.98;;;;;;;;;;5066989;28;20219;-61
2023/12/17 08:12:13;;;;;;;2.85;2.20;;;;;;;;;;5066884;28;20668;-62
2023/12/17 08:14:41;;;;;;;2.10;1.88;;;;;;;;;;5055433;28;21564;-61
2023/12/17 08:17:09;;;;;;;2.30;2.00;;;;;;;;;;5054321;28;22635;-62
2023/12/17 08:19:38;;;;;;;1.90;1.80;;;;;;;;;;5065198;28;20239;-61
2023/12/17 08:22:05;;;;;;;2.40;2.20;;;;;;;;;;5063087;28;20237;-62
2023/12/17 08:24:33;;;;;;;2.97;1.90;;;;;;;;;;5063277;28;20209;-61
2023/12/17 08:27:03;;;;;;;2.35;2.15;;;;;;;;;;5066814;28;20204;-62
2023/12/17 08:29:30;;;;;;;2.08;1.88;;;;;;;;;;5065148;28;20219;-61
2023/12/17 08:31:58;;;;;;;2.30;2.03;;;;;;;;;;5064452;28;20213;-62
2023/12/17 08:34:28;;;;;;;1.88;1.75;;;;;;;;;;5064435;28;20212;-62
2023/12/17 08:36:56;;;;;;;2.10;1.90;;;;;;;;;;5067512;28;20200;-62
2023/12/17 08:39:25;;;;;;;2.15;1.95;;;;;;;;;;5060908;28;20296;-61
2023/12/17 08:41:53;;;;;;;2.58;1.88;;;;;;;;;;5065294;28;20216;-61
2023/12/17 08:44:25;;;;;;;2.22;2.03;;;;;;;;;;5062737;28;20397;-61
2023/12/17 08:46:52;;;;;;;2.20;2.00;;;;;;;;;;5065815;28;20292;-61
2023/12/17 08:49:20;;;;;;;2.55;2.15;;;;;;;;;;5065412;28;20217;-62
2023/12/17 08:51:47;;;;;;;2.45;2.20;;;;;;;;;;5065383;28;20298;-62
2023/12/17 08:54:14;;;;;;;2.88;1.95;;;;;;;;;;5062385;28;20212;-62
2023/12/17 08:56:42;;;;;;;2.13;2.03;;;;;;;;;;5064467;28;20200;-61
2023/12/17 08:59:09;;;;;;;2.13;1.92;;;;;;;;;;5069176;28;20220;-61
2023/12/17 09:01:38;;;;;;;3.20;2.30;;;;;;;;;;5069191;28;20712;-61
2023/12/17 09:04:05;;;;;;;2.60;2.28;;;;;;;;;;5065307;28;20227;-61
2023/12/17 09:06:32;;;;;;;2.55;2.35;;;;;;;;;;5071023;28;20223;-61
2023/12/17 09:08:58;;;;;;;2.40;2.20;;;;;;;;;;5064900;28;20212;-62
2023/12/17 09:11:26;;;;;;;2.95;2.20;;;;;;;;;;5068489;28;20210;-61
2023/12/17 09:13:53;;;;;;;2.58;2.08;;;;;;;;;;5064409;28;20212;-62
2023/12/17 09:16:21;;;;;;;2.30;2.10;;;;;;;;;;5068632;28;20200;-61
2023/12/17 09:18:50;;;;;;;2.30;2.10;;;;;;;;;;5060774;28;20204;-62
2023/12/17 09:21:18;;;;;;;3.08;2.30;;;;;;;;;;5070435;28;20232;-62
2023/12/17 09:23:45;;;;;;;2.50;2.30;;;;;;;;;;5068242;28;20231;-62
2023/12/17 09:26:13;;;;;;;2.13;1.92;;;;;;;;;;5071176;28;20735;-62
2023/12/17 09:28:41;;;;;;;2.63;2.00;;;;;;;;;;5067745;28;20227;-62
2023/12/17 09:31:09;;;;;;;2.50;2.13;;;;;;;;;;5068738;28;20222;-61
2023/12/17 09:33:36;;;;;;;2.75;2.28;;;;;;;;;;5067396;28;20594;-61
2023/12/17 09:36:05;;;;;;;3.03;2.22;;;;;;;;;;5069594;28;20300;-61
2023/12/17 09:38:33;;;;;;;3.33;2.50;;;;;;;;;;5067105;28;20215;-61
2023/12/17 09:41:00;;;;;;;3.08;2.10;;;;;;;;;;5069194;28;20236;-61
2023/12/17 09:43:28;;;;;;;2.25;2.05;;;;;;;;;;5068982;28;20235;-61
2023/12/17 09:45:55;;;;;;;2.47;1.92;;;;;;;;;;5065288;28;20213;-62
2023/12/17 09:48:23;;;;;;;2.70;1.98;;;;;;;;;;5070489;28;20228;-62
2023/12/17 09:50:52;;;;;;;2.30;2.10;;;;;;;;;;5068871;28;20291;-62
2023/12/17 09:53:22;;;;;;;3.58;2.40;;;;;;;;;;5068289;28;20204;-61
2023/12/17 09:55:49;;;;;;;2.40;2.15;;;;;;;;;;5067032;28;20204;-62
2023/12/17 09:58:17;;;;;;;2.42;2.22;;;;;;;;;;5049240;28;20243;-61
2023/12/17 10:00:44;;;;;;;2.63;2.25;;;;;;;;;;5045041;28;20646;-61
2023/12/17 10:03:14;;;;;;;2.50;2.30;;;;;;;;;;5043400;28;20232;-61
2023/12/17 10:05:42;;;;;;;3.40;2.28;;;;;;;;;;5045389;28;20204;-61
2023/12/17 10:08:09;;;;;;;2.67;2.47;;;;;;;;;;5044057;28;20209;-61
2023/12/17 10:10:38;;;;;;;2.30;2.10;;;;;;;;;;5039980;28;20330;-62
2023/12/17 10:13:05;;;;;;;2.47;2.28;;;;;;;;;;5044353;28;20334;-62
2023/12/17 10:15:37;;;;;;;2.50;2.30;;;;;;;;;;5041690;28;20209;-62
2023/12/17 10:18:06;;;;;;;2.65;2.40;;;;;;;;;;5039862;28;20205;-61
2023/12/17 10:20:34;;;;;;;2.53;2.33;;;;;;;;;;5042140;28;20257;-62
2023/12/17 10:23:03;;;;;;;3.03;2.53;;;;;;;;;;5041211;28;20236;-61
2023/12/17 10:25:30;;;;;;;3.05;2.60;;;;;;;;;;5037196;28;20245;-61
2023/12/17 10:28:00;;;;;;;2.67;2.40;;;;;;;;;;5046659;28;20678;-61
2023/12/17 10:30:29;;;;;;;2.60;2.25;;;;;;;;;;5044265;28;20491;-61
2023/12/17 10:32:56;;;;;;;2.35;2.15;;;;;;;;;;5045454;28;20590;-61
2023/12/17 10:35:24;;;;;;;2.50;2.30;;;;;;;;;;5041780;28;20205;-61
2023/12/17 10:37:54;;;;;;;3.10;2.20;;;;;;;;;;5042418;28;20210;-62
2023/12/17 10:40:21;;;;;;;3.08;2.40;;;;;;;;;;5040812;28;20343;-61
2023/12/17 10:42:49;;;;;;;3.03;2.10;;;;;;;;;;5041192;28;20214;-61
2023/12/17 10:45:20;;;;;;;3.05;2.65;;;;;;;;;;5036978;28;20249;-61
2023/12/17 10:47:49;;;;;;;2.58;2.08;;;;;;;;;;5040522;28;20221;-61
2023/12/17 10:50:18;;;;;;;2.60;2.10;;;;;;;;;;5040264;28;20667;-61
2023/12/17 10:52:47;;;;;;;2.50;2.20;;;;;;;;;;5041866;28;20227;-62
2023/12/17 10:55:15;;;;;;;2.35;2.15;;;;;;;;;;5040967;28;20220;-61
2023/12/17 10:57:44;;;;;;;2.60;2.20;;;;;;;;;;5045127;28;20260;-61
2023/12/17 11:00:12;;;;;;;2.85;2.30;;;;;;;;;;5046330;28;20478;-62
2023/12/17 11:02:42;;;;;;;2.60;2.10;;;;;;;;;;5050279;28;20208;-62
2023/12/17 11:05:09;;;;;;;2.53;2.30;;;;;;;;;;5046155;28;20202;-61
2023/12/17 11:07:36;;;;;;;2.63;2.42;;;;;;;;;;5049213;28;20229;-61
2023/12/17 11:10:04;;;;;;;2.50;2.30;;;;;;;;;;5047669;28;20212;-61
2023/12/17 11:12:32;;;;;;;2.92;2.47;;;;;;;;;;5046643;28;20201;-61
2023/12/17 11:15:00;;;;;;;2.60;2.03;;;;;;;;;;5045629;28;20201;-62
2023/12/17 11:17:27;;;;;;;3.17;2.42;;;;;;;;;;5046066;28;20216;-61
2023/12/17 11:19:58;;;;;;;3.10;2.50;;;;;;;;;;5043601;28;20256;-61
2023/12/17 11:22:26;;;;;;;2.47;2.28;;;;;;;;;;5048203;28;20205;-61
2023/12/17 11:24:55;;;;;;;2.33;2.10;;;;;;;;;;5040227;28;20229;-61
2023/12/17 11:27:24;;;;;;;2.95;2.60;;;;;;;;;;5042219;28;20220;-61
2023/12/17 11:29:55;;;;;;;2.20;2.00;;;;;;;;;;5049279;28;20223;-61
2023/12/17 11:32:26;;;;;;;3.58;2.75;;;;;;;;;;5047256;28;20205;-61
2023/12/17 11:34:54;;;;;;;2.40;2.20;;;;;;;;;;5044432;28;20227;-62
2023/12/17 11:37:24;;;;;;;2.45;2.20;;;;;;;;;;5046061;28;20224;-62
2023/12/17 11:39:52;;;;;;;3.13;2.30;;;;;;;;;;5046744;28;20220;-61
2023/12/17 11:42:20;;;;;;;2.45;2.25;;;;;;;;;;5047483;28;20225;-61
2023/12/17 11:44:48;;;;;;;2.60;2.40;;;;;;;;;;5047272;28;20551;-61
2023/12/17 11:47:15;;;;;;;1.90;1.77;;;;;;;;;;5046836;28;20598;-61
2023/12/17 11:49:43;;;;;;;3.15;2.60;;;;;;;;;;5043721;28;20286;-61
2023/12/17 11:52:12;;;;;;;2.63;2.28;;;;;;;;;;5046729;28;20209;-61
2023/12/17 11:54:41;;;;;;;2.22;2.03;;;;;;;;;;5046887;28;20587;-61
2023/12/17 11:57:18;;;;;;;2.63;1.90;;;;;;;;;;5055709;28;20247;-61
2023/12/17 11:59:46;;;;;;;2.20;2.00;;;;;;;;;;5085951;28;20211;-61
2023/12/17 12:02:16;;;;;;;2.47;2.28;;;;;;;;;;5084515;28;20803;-62
2023/12/17 12:04:43;;;;;;;2.92;2.20;;;;;;;;;;5088219;28;20220;-61
2023/12/17 12:07:11;;;;;;;2.92;2.30;;;;;;;;;;5088697;28;20210;-61
2023/12/17 12:09:39;;;;;;;2.67;1.92;;;;;;;;;;5089139;28;20338;-61
2023/12/17 12:12:17;;;;;;;2.05;1.85;;;;;;;;;;5089515;28;20962;-61
2023/12/17 12:14:45;;;;;;;2.58;2.17;;;;;;;;;;5090691;28;20231;-61
2023/12/17 12:17:28;;;;;;;3.15;2.13;;;;;;;;;;5089989;28;20620;-61
2023/12/17 12:19:55;;;;;;;2.13;1.92;;;;;;;;;;5078241;28;20214;-61
2023/12/17 12:22:28;;;;;;;2.15;1.88;;;;;;;;;;5090090;28;20298;-61
2023/12/17 12:24:56;;;;;;;2.15;2.00;;;;;;;;;;5090555;28;20319;-61
2023/12/17 12:27:25;;;;;;;2.53;2.03;;;;;;;;;;5090516;28;20219;-61
2023/12/17 12:29:53;;;;;;;2.05;1.92;;;;;;;;;;5090240;28;20273;-61
2023/12/17 12:32:27;;;;;;;2.28;2.03;;;;;;;;;;5089789;28;20643;-61
2023/12/17 12:34:55;;;;;;;2.65;2.20;;;;;;;;;;5091146;28;20206;-61
2023/12/17 12:37:32;;;;;;;2.20;2.00;;;;;;;;;;5091248;28;20292;-61
2023/12/17 12:39:59;;;;;;;3.08;2.65;;;;;;;;;;5091415;28;20445;-61
2023/12/17 12:42:28;;;;;;;2.50;2.10;;;;;;;;;;5092721;28;20227;-61
2023/12/17 12:44:56;;;;;;;1.98;1.80;;;;;;;;;;5089992;28;20218;-61
2023/12/17 12:47:23;;;;;;;2.17;1.83;;;;;;;;;;5088810;28;22230;-61
2023/12/17 12:49:51;;;;;;;1.67;1.58;;;;;;;;;;5088539;28;20204;-61
2023/12/17 12:52:18;;;;;;;2.38;2.15;;;;;;;;;;5090783;28;20620;-61
2023/12/17 12:54:49;;;;;;;2.58;2.38;;;;;;;;;;5086906;28;20217;-61
2023/12/17 12:57:17;;;;;;;2.42;2.03;;;;;;;;;;5089086;28;20247;-61
2023/12/17 12:59:46;;;;;;;2.30;2.10;;;;;;;;;;5088469;28;20211;-61
2023/12/17 13:02:13;;;;;;;2.10;1.90;;;;;;;;;;5083307;28;20629;-61
2023/12/17 13:04:41;;;;;;;2.00;1.80;;;;;;;;;;5090579;28;20277;-61
2023/12/17 13:07:08;;;;;;;2.22;2.03;;;;;;;;;;5089353;28;20212;-61
2023/12/17 13:09:35;;;;;;;2.90;2.10;;;;;;;;;;5088637;28;20228;-61
2023/12/17 13:12:03;;;;;;;3.35;2.03;;;;;;;;;;5090959;28;20219;-61
2023/12/17 13:14:31;;;;;;;2.90;2.20;;;;;;;;;;5089307;28;20207;-61
2023/12/17 13:17:00;;;;;;;2.55;2.15;;;;;;;;;;5087082;28;20195;-61
2023/12/17 13:19:27;;;;;;;2.35;1.98;;;;;;;;;;5088405;28;20581;-61
2023/12/17 13:21:55;;;;;;;2.22;1.90;;;;;;;;;;5087508;28;20232;-61
2023/12/17 13:24:23;;;;;;;2.15;1.95;;;;;;;;;;5089504;28;20616;-61
2023/12/17 13:26:51;;;;;;;1.85;1.67;;;;;;;;;;5089542;28;20292;-61
2023/12/17 13:29:18;;;;;;;2.30;2.10;;;;;;;;;;5081716;28;20238;-61
2023/12/17 13:31:46;;;;;;;2.28;2.08;;;;;;;;;;5088359;28;21722;-61
2023/12/17 13:34:19;;;;;;;2.38;2.17;;;;;;;;;;5089036;28;20199;-61
2023/12/17 13:36:46;;;;;;;2.58;1.85;;;;;;;;;;5088763;28;20241;-61
2023/12/17 13:39:13;;;;;;;1.90;1.80;;;;;;;;;;5089119;28;20203;-61
2023/12/17 13:41:41;;;;;;;3.17;2.40;;;;;;;;;;5085591;28;20247;-62
2023/12/17 13:44:08;;;;;;;2.33;2.10;;;;;;;;;;5088361;28;20218;-61
2023/12/17 13:46:36;;;;;;;2.20;1.95;;;;;;;;;;5086956;28;20215;-61
2023/12/17 13:49:04;;;;;;;2.22;1.75;;;;;;;;;;5091032;28;20585;-61
2023/12/17 13:51:32;;;;;;;2.05;1.85;;;;;;;;;;5088110;28;20211;-61
2023/12/17 13:53:59;;;;;;;2.28;1.70;;;;;;;;;;5086238;28;20211;-61
2023/12/17 13:56:27;;;;;;;2.08;1.80;;;;;;;;;;5087920;28;20210;-61
2023/12/17 13:58:55;;;;;;;2.65;1.80;;;;;;;;;;5087321;28;20235;-61
2023/12/17 14:01:25;;;;;;;2.15;1.95;;;;;;;;;;5086412;28;20220;-61
2023/12/17 14:03:52;;;;;;;2.85;2.10;;;;;;;;;;5082982;28;20219;-61
2023/12/17 14:06:19;;;;;;;2.28;1.80;;;;;;;;;;5086693;28;20204;-61
2023/12/17 14:08:49;;;;;;;2.10;1.92;;;;;;;;;;5088408;28;20210;-61
2023/12/17 14:11:17;;;;;;;2.20;2.00;;;;;;;;;;5087360;28;20243;-61
2023/12/17 14:13:44;;;;;;;1.80;1.70;;;;;;;;;;5088045;28;20204;-61
2023/12/17 14:16:20;;;;;;;2.45;2.00;;;;;;;;;;5088094;28;20206;-61
2023/12/17 14:18:47;;;;;;;2.08;1.83;;;;;;;;;;5087766;28;20244;-61
2023/12/17 14:21:15;;;;;;;2.10;1.90;;;;;;;;;;5087192;28;20223;-61
2023/12/17 14:23:43;;;;;;;2.83;1.83;;;;;;;;;;5088601;28;22156;-61
2023/12/17 14:26:11;;;;;;;2.22;2.00;;;;;;;;;;5088280;28;20219;-61
2023/12/17 14:28:39;;;;;;;2.00;1.80;;;;;;;;;;5087799;28;20204;-61
2023/12/17 14:31:07;;;;;;;2.15;1.95;;;;;;;;;;5086713;28;20207;-62
2023/12/17 14:33:34;;;;;;;2.17;1.60;;;;;;;;;;5084556;28;20206;-61
2023/12/17 14:36:02;;;;;;;1.88;1.77;;;;;;;;;;5085890;28;20211;-61
2023/12/17 14:38:29;;;;;;;2.10;1.88;;;;;;;;;;5086575;28;20200;-61
2023/12/17 14:40:57;;;;;;;3.03;2.03;;;;;;;;;;5085778;28;20227;-61
2023/12/17 14:43:26;;;;;;;2.95;2.20;;;;;;;;;;5086264;28;20227;-61
2023/12/17 14:45:53;;;;;;;2.00;1.63;;;;;;;;;;5086015;28;20227;-61
2023/12/17 14:48:20;;;;;;;2.22;1.77;;;;;;;;;;5082049;28;20226;-61